Time;durP1;ratioP1;P1;durP2;ratioP2;P2;SDS_P1;SDS_P2;PMS_P1;PMS_P2;Temp;Humidity;BMP_temperature;BMP_pressure;BME280_temperature;BME280_humidity;BME280_pressure;Samples;Min_cycle;Max_cycle;Signal;HPM_P1;HPM_P2
2023/06/29 00:02:44;;;;;;;;;;;;;;;17.51;100.00;95787.63;10452168;28;1899;-70
2023/06/29 00:07:46;;;;;;;;;;;;;;;17.15;100.00;95790.56;10451621;28;2316;-69
2023/06/29 00:12:49;;;;;;;;;;;;;;;16.82;100.00;95780.06;10448024;28;2018;-69
2023/06/29 00:17:51;;;;;;;;;;;;;;;16.81;100.00;95780.38;10456481;28;1951;-69
2023/06/29 00:22:54;;;;;;;;;;;;;;;16.63;100.00;95774.03;10456443;28;1932;-70
2023/06/29 00:27:57;;;;;;;;;;;;;;;16.49;100.00;95774.94;10450694;28;2058;-69
2023/06/29 00:33:00;;;;;;;;;;;;;;;16.41;100.00;95775.69;10460207;28;1907;-69
2023/06/29 00:38:02;;;;;;;;;;;;;;;16.70;100.00;95772.50;10449102;28;2233;-70
2023/06/29 00:43:04;;;;;;;;;;;;;;;16.74;100.00;95776.19;10451453;28;4501;-69
2023/06/29 00:48:07;;;;;;;;;;;;;;;16.70;100.00;95769.78;10453943;28;1948;-69
2023/06/29 00:53:09;;;;;;;;;;;;;;;16.73;100.00;95762.91;10447051;28;1920;-70
2023/06/29 00:58:12;;;;;;;;;;;;;;;16.68;100.00;95753.00;10439427;28;2184;-70
2023/06/29 01:03:15;;;;;;;;;;;;;;;16.73;100.00;95761.03;10439005;28;2328;-70
2023/06/29 01:08:18;;;;;;;;;;;;;;;16.56;100.00;95757.41;10445247;28;1917;-70
2023/06/29 01:13:21;;;;;;;;;;;;;;;16.60;100.00;95764.59;10446822;28;1949;-70
2023/06/29 01:18:24;;;;;;;;;;;;;;;16.60;100.00;95742.88;10447635;28;2006;-70
2023/06/29 01:23:26;;;;;;;;;;;;;;;16.44;100.00;95750.63;10442455;28;2124;-70
2023/06/29 01:28:32;;;;;;;;;;;;;;;16.58;100.00;95755.97;10454571;28;2073;-69
2023/06/29 01:33:34;;;;;;;;;;;;;;;16.53;100.00;95747.16;10449855;28;2045;-70
2023/06/29 01:38:37;;;;;;;;;;;;;;;16.41;100.00;95742.31;10455922;28;1951;-70
2023/06/29 01:43:40;;;;;;;;;;;;;;;16.39;100.00;95741.81;10444252;28;4473;-70
2023/06/29 01:48:43;;;;;;;;;;;;;;;16.51;100.00;95738.53;10443749;28;2037;-70
2023/06/29 01:53:45;;;;;;;;;;;;;;;16.28;100.00;95726.91;10454135;28;1978;-71
2023/06/29 01:58:48;;;;;;;;;;;;;;;16.20;100.00;95726.56;10448344;28;2763;-72
2023/06/29 02:03:51;;;;;;;;;;;;;;;15.95;100.00;95725.28;10429089;28;2160;-69
2023/06/29 02:08:54;;;;;;;;;;;;;;;16.19;100.00;95727.69;10448301;28;2299;-70
2023/06/29 02:13:57;;;;;;;;;;;;;;;16.19;100.00;95719.53;10441751;28;2006;-69
2023/06/29 02:18:59;;;;;;;;;;;;;;;16.40;100.00;95727.13;10445370;28;2274;-69
2023/06/29 02:24:02;;;;;;;;;;;;;;;16.19;100.00;95722.25;10438612;28;2133;-69
2023/06/29 02:29:05;;;;;;;;;;;;;;;16.06;100.00;95717.69;10441553;28;2308;-70
2023/06/29 02:34:07;;;;;;;;;;;;;;;16.28;100.00;95719.56;10443956;28;2370;-70
2023/06/29 02:39:10;;;;;;;;;;;;;;;15.85;100.00;95713.91;10450170;28;1991;-71
2023/06/29 02:44:12;;;;;;;;;;;;;;;15.79;100.00;95704.28;10451597;28;4621;-68
2023/06/29 02:49:15;;;;;;;;;;;;;;;15.67;100.00;95713.78;10451785;28;2121;-70
2023/06/29 02:54:18;;;;;;;;;;;;;;;15.72;100.00;95710.16;10439849;28;2024;-69
2023/06/29 02:59:20;;;;;;;;;;;;;;;15.99;100.00;95705.69;10441623;28;2238;-69
2023/06/29 03:04:23;;;;;;;;;;;;;;;16.01;100.00;95709.69;10443501;28;2066;-69
2023/06/29 03:09:25;;;;;;;;;;;;;;;15.97;100.00;95708.72;10424611;28;2061;-69
2023/06/29 03:14:28;;;;;;;;;;;;;;;15.86;100.00;95705.47;10446334;28;1973;-69
2023/06/29 03:19:30;;;;;;;;;;;;;;;15.58;100.00;95707.44;10447624;28;1951;-70
2023/06/29 03:24:32;;;;;;;;;;;;;;;15.26;100.00;95710.34;10440570;28;2121;-69
2023/06/29 03:29:35;;;;;;;;;;;;;;;15.62;100.00;95705.75;10432548;28;1967;-69
2023/06/29 03:34:38;;;;;;;;;;;;;;;15.15;100.00;95704.38;10445515;28;2303;-69
2023/06/29 03:39:40;;;;;;;;;;;;;;;15.82;100.00;95707.16;10451937;28;2029;-69
2023/06/29 03:44:43;;;;;;;;;;;;;;;15.72;100.00;95701.22;10445067;28;1979;-70
2023/06/29 03:49:47;;;;;;;;;;;;;;;15.97;100.00;95710.63;10450838;28;1990;-70
2023/06/29 03:54:49;;;;;;;;;;;;;;;16.30;100.00;95709.22;10441906;28;2493;-70
2023/06/29 03:59:52;;;;;;;;;;;;;;;16.73;100.00;95709.47;10443741;28;1956;-69
2023/06/29 04:04:55;;;;;;;;;;;;;;;16.85;100.00;95702.59;10443721;28;2241;-69
2023/06/29 04:09:57;;;;;;;;;;;;;;;16.82;100.00;95700.53;10441701;28;2082;-70
2023/06/29 04:15:00;;;;;;;;;;;;;;;17.15;100.00;95695.50;10443814;28;2268;-68
2023/06/29 04:20:02;;;;;;;;;;;;;;;17.49;100.00;95686.56;10441462;28;1976;-70
2023/06/29 04:25:05;;;;;;;;;;;;;;;17.51;100.00;95692.50;10444902;28;1982;-69
2023/06/29 04:30:08;;;;;;;;;;;;;;;17.61;100.00;95691.38;10443655;28;1979;-69
2023/06/29 04:35:11;;;;;;;;;;;;;;;17.70;100.00;95687.53;10451173;28;1985;-69
2023/06/29 04:40:14;;;;;;;;;;;;;;;18.10;100.00;95690.88;10455369;28;1963;-69
2023/06/29 04:45:18;;;;;;;;;;;;;;;18.23;100.00;95682.84;10448773;28;4611;-70
2023/06/29 04:50:25;;;;;;;;;;;;;;;18.39;100.00;95674.97;10456254;28;2334;-71
2023/06/29 04:55:28;;;;;;;;;;;;;;;18.52;100.00;95669.31;10451174;28;1974;-72
2023/06/29 05:00:30;;;;;;;;;;;;;;;18.56;100.00;95672.16;10445386;28;2104;-69
2023/06/29 05:05:33;;;;;;;;;;;;;;;19.01;100.00;95668.91;10447805;28;1986;-68
2023/06/29 05:10:35;;;;;;;;;;;;;;;18.95;100.00;95675.69;10448897;28;1953;-69
2023/06/29 05:15:38;;;;;;;;;;;;;;;19.29;100.00;95671.97;10453096;28;2163;-70
2023/06/29 05:20:41;;;;;;;;;;;;;;;19.43;100.00;95667.84;10450916;28;2027;-73
2023/06/29 05:25:43;;;;;;;;;;;;;;;19.44;100.00;95672.16;10448199;28;2002;-70
2023/06/29 05:30:46;;;;;;;;;;;;;;;20.04;100.00;95671.97;10440431;28;1978;-71
2023/06/29 05:35:49;;;;;;;;;;;;;;;20.09;100.00;95666.31;10447154;28;1970;-71
2023/06/29 05:40:52;;;;;;;;;;;;;;;20.18;100.00;95680.69;10447265;28;2327;-70
2023/06/29 05:45:54;;;;;;;;;;;;;;;20.38;100.00;95673.56;10450912;28;4763;-86
2023/06/29 05:50:57;;;;;;;;;;;;;;;20.81;100.00;95670.34;10431031;28;2268;-86
2023/06/29 05:55:59;;;;;;;;;;;;;;;20.97;100.00;95671.22;10451525;28;2229;-86
2023/06/29 06:01:02;;;;;;;;;;;;;;;21.30;100.00;95662.09;10447327;28;2037;-85
2023/06/29 06:11:35;;;;;;;;;;;;;;;21.44;100.00;95667.19;10448766;28;1903;-87
2023/06/29 06:27:21;;;;;;;;;;;;;;;22.25;90.92;95662.47;10447928;28;1986;-84
2023/06/29 06:32:31;;;;;;;;;;;;;;;22.37;89.89;95659.66;10438601;28;1985;-86
2023/06/29 06:37:50;;;;;;;;;;;;;;;22.32;89.44;95655.22;10446136;28;2055;-86
2023/06/29 06:43:03;;;;;;;;;;;;;;;23.19;84.29;95640.53;10442094;28;4703;-85
2023/06/29 06:48:23;;;;;;;;;;;;;;;23.00;82.85;95645.97;10438119;28;2056;-85
2023/06/29 06:53:41;;;;;;;;;;;;;;;23.36;82.78;95644.03;10444799;28;2038;-84
2023/06/29 06:58:51;;;;;;;;;;;;;;;23.52;76.70;95643.97;10446183;28;2006;-84
2023/06/29 07:04:03;;;;;;;;;;;;;;;23.48;78.93;95638.44;10455779;28;2055;-83
2023/06/29 07:09:13;;;;;;;;;;;;;;;23.52;75.33;95635.75;10436199;28;1977;-85
2023/06/29 07:14:16;;;;;;;;;;;;;;;23.69;75.65;95636.16;10453352;28;1983;-85
2023/06/29 07:19:23;;;;;;;;;;;;;;;23.22;72.96;95630.78;10435150;28;2052;-84
2023/06/29 07:24:35;;;;;;;;;;;;;;;23.20;68.79;95635.84;10452287;28;1951;-84
2023/06/29 07:29:46;;;;;;;;;;;;;;;23.87;67.31;95632.97;10439468;28;1958;-85
2023/06/29 07:34:58;;;;;;;;;;;;;;;23.76;58.87;95629.22;10456589;28;1939;-84
2023/06/29 07:40:04;;;;;;;;;;;;;;;23.54;61.69;95623.28;10452849;28;2709;-81
2023/06/29 07:45:12;;;;;;;;;;;;;;;24.24;58.68;95617.59;10451200;28;4544;-84
2023/06/29 07:50:26;;;;;;;;;;;;;;;24.15;56.86;95619.78;10451742;28;2253;-83
2023/06/29 07:55:32;;;;;;;;;;;;;;;23.78;54.25;95615.91;10470272;28;1948;-83
2023/06/29 08:00:43;;;;;;;;;;;;;;;23.89;55.72;95611.44;10441142;28;1974;-83
2023/06/29 08:05:50;;;;;;;;;;;;;;;24.47;52.29;95619.56;10434735;28;1814;-82
2023/06/29 08:11:08;;;;;;;;;;;;;;;24.98;51.73;95619.22;10444778;28;1966;-84
2023/06/29 08:16:16;;;;;;;;;;;;;;;24.33;49.03;95616.56;10458367;28;1982;-82
2023/06/29 08:21:33;;;;;;;;;;;;;;;24.64;53.77;95616.34;10464783;28;2110;-82
2023/06/29 08:26:38;;;;;;;;;;;;;;;24.33;47.88;95605.56;10446159;28;1993;-81
2023/06/29 08:31:48;;;;;;;;;;;;;;;24.60;49.94;95606.44;10442523;28;1993;-82
2023/06/29 08:42:40;;;;;;;;;;;;;;;24.01;42.59;95592.06;10470900;28;1998;-84
2023/06/29 08:47:49;;;;;;;;;;;;;;;23.53;45.19;95594.22;10467671;28;1959;-84
2023/06/29 08:52:58;;;;;;;;;;;;;;;23.85;43.51;95588.59;10453817;28;2061;-85
2023/06/29 08:58:38;;;;;;;;;;;;;;;24.25;43.59;95579.94;10460173;28;1947;-84
2023/06/29 09:03:50;;;;;;;;;;;;;;;25.10;41.59;95583.28;10452096;28;2096;-83
2023/06/29 09:08:58;;;;;;;;;;;;;;;24.94;40.69;95572.44;10452886;28;1969;-83
2023/06/29 09:14:07;;;;;;;;;;;;;;;25.40;41.21;95566.00;10454793;28;2057;-84
2023/06/29 09:19:16;;;;;;;;;;;;;;;25.40;39.88;95566.00;10438722;28;2054;-83
2023/06/29 09:24:25;;;;;;;;;;;;;;;25.69;40.13;95545.88;10454043;28;1984;-83
2023/06/29 09:29:56;;;;;;;;;;;;;;;25.80;39.28;95549.59;10434452;28;2419;-84
2023/06/29 09:35:04;;;;;;;;;;;;;;;25.57;40.13;95543.38;10447780;28;1991;-84
2023/06/29 09:40:11;;;;;;;;;;;;;;;25.73;39.40;95532.22;10452147;28;2056;-83
2023/06/29 09:50:40;;;;;;;;;;;;;;;25.29;38.78;95536.38;10458419;28;2058;-84
2023/06/29 09:55:48;;;;;;;;;;;;;;;25.20;37.89;95540.59;10452499;28;1986;-82
2023/06/29 10:01:02;;;;;;;;;;;;;;;24.81;39.16;95532.56;10434620;28;2059;-83
2023/06/29 10:06:15;;;;;;;;;;;;;;;25.26;38.52;95522.59;10443917;28;1977;-84
2023/06/29 10:11:27;;;;;;;;;;;;;;;25.10;36.65;95525.53;10458006;28;2027;-84
2023/06/29 10:16:34;;;;;;;;;;;;;;;24.92;37.17;95521.72;10448499;28;2127;-83
2023/06/29 10:21:39;;;;;;;;;;;;;;;24.82;38.34;95519.63;10445843;28;1911;-84
2023/06/29 10:26:44;;;;;;;;;;;;;;;25.27;36.89;95497.47;10414552;28;2332;-83
2023/06/29 10:32:06;;;;;;;;;;;;;;;25.12;40.18;95503.94;10441602;28;1988;-82
2023/06/29 10:37:14;;;;;;;;;;;;;;;25.88;38.56;95490.66;10431860;28;1997;-84
2023/06/29 10:42:24;;;;;;;;;;;;;;;27.23;36.88;95492.84;10434305;28;4954;-83
2023/06/29 10:47:37;;;;;;;;;;;;;;;27.40;33.81;95486.59;10450040;28;2045;-83
2023/06/29 10:58:05;;;;;;;;;;;;;;;28.26;30.78;95487.56;10448837;28;2056;-81
2023/06/29 11:03:20;;;;;;;;;;;;;;;28.44;30.58;95481.25;10455365;28;2158;-83
2023/06/29 11:08:31;;;;;;;;;;;;;;;27.82;32.49;95481.63;10428358;28;1973;-84
2023/06/29 11:13:35;;;;;;;;;;;;;;;28.22;31.74;95470.19;10454636;28;1920;-80
2023/06/29 11:18:46;;;;;;;;;;;;;;;28.09;31.16;95468.22;10428387;28;1972;-82
2023/06/29 11:23:49;;;;;;;;;;;;;;;27.88;32.16;95467.03;10427539;28;2302;-83
2023/06/29 11:29:11;;;;;;;;;;;;;;;27.78;32.98;95459.50;10446638;28;1977;-84
2023/06/29 11:34:32;;;;;;;;;;;;;;;27.41;33.93;95449.53;10448645;28;2169;-83
2023/06/29 11:39:39;;;;;;;;;;;;;;;26.32;34.78;95451.28;10453000;28;2018;-82
2023/06/29 11:44:49;;;;;;;;;;;;;;;26.39;35.90;95447.78;10428078;28;4497;-83
2023/06/29 11:50:04;;;;;;;;;;;;;;;26.46;33.94;95442.34;10449740;28;1902;-83
2023/06/29 11:55:17;;;;;;;;;;;;;;;26.36;34.19;95438.34;10452060;28;1599;-83
2023/06/29 12:00:40;;;;;;;;;;;;;;;26.26;34.37;95435.50;10460546;28;2049;-83
2023/06/29 12:05:48;;;;;;;;;;;;;;;26.71;33.83;95414.94;10439895;28;1981;-84
2023/06/29 12:11:06;;;;;;;;;;;;;;;26.55;34.00;95414.47;10457892;28;2240;-83
2023/06/29 12:16:20;;;;;;;;;;;;;;;26.99;34.28;95410.75;10451002;28;1959;-82
2023/06/29 12:21:30;;;;;;;;;;;;;;;27.04;34.36;95418.63;10447653;28;2322;-83
2023/06/29 12:26:34;;;;;;;;;;;;;;;27.20;34.39;95399.78;10454642;28;1923;-83
2023/06/29 12:31:45;;;;;;;;;;;;;;;26.85;35.26;95392.97;10453852;28;2410;-83
2023/06/29 12:36:53;;;;;;;;;;;;;;;26.62;34.47;95389.69;10459558;28;2024;-83
2023/06/29 12:42:03;;;;;;;;;;;;;;;26.43;34.60;95384.47;10455691;28;4573;-83
2023/06/29 12:47:18;;;;;;;;;;;;;;;26.97;34.28;95382.75;10442035;28;1979;-83
2023/06/29 12:52:26;;;;;;;;;;;;;;;27.05;33.49;95376.91;10439439;28;1997;-83
2023/06/29 12:57:48;;;;;;;;;;;;;;;27.34;33.04;95375.00;10463564;28;1999;-81
2023/06/29 13:02:52;;;;;;;;;;;;;;;27.44;32.57;95381.72;10453676;28;2041;-84
2023/06/29 13:07:56;;;;;;;;;;;;;;;27.67;33.26;95367.53;10442209;28;2004;-83
2023/06/29 13:13:00;;;;;;;;;;;;;;;28.14;32.00;95373.88;10452454;28;1956;-84
2023/06/29 13:18:15;;;;;;;;;;;;;;;27.59;32.42;95377.00;10453631;28;2028;-82
2023/06/29 13:23:28;;;;;;;;;;;;;;;27.23;32.79;95378.91;10452751;28;2472;-83
2023/06/29 13:28:39;;;;;;;;;;;;;;;27.29;33.08;95366.31;10461694;28;2008;-82
2023/06/29 13:33:51;;;;;;;;;;;;;;;27.40;31.68;95373.44;10463490;28;2004;-81
2023/06/29 13:38:58;;;;;;;;;;;;;;;27.58;30.35;95359.66;10453874;28;2006;-83
2023/06/29 13:44:09;;;;;;;;;;;;;;;28.12;30.39;95359.66;10454404;28;1962;-81
2023/06/29 13:49:15;;;;;;;;;;;;;;;29.13;28.28;95355.44;10436409;28;2061;-83
2023/06/29 13:54:22;;;;;;;;;;;;;;;29.31;27.41;95351.38;10456892;28;2183;-83
2023/06/29 13:59:42;;;;;;;;;;;;;;;29.70;27.16;95346.78;10430431;28;2264;-82
2023/06/29 14:04:55;;;;;;;;;;;;;;;29.47;26.77;95337.03;10443409;28;2096;-82
2023/06/29 14:10:04;;;;;;;;;;;;;;;29.15;27.86;95337.25;10433324;28;2436;-84
2023/06/29 14:15:21;;;;;;;;;;;;;;;29.10;28.53;95325.81;10456221;28;2071;-83
2023/06/29 14:20:26;;;;;;;;;;;;;;;28.36;30.20;95336.75;10434240;28;1930;-83
2023/06/29 14:25:30;;;;;;;;;;;;;;;28.99;29.64;95331.38;10451322;28;1925;-83
2023/06/29 14:30:37;;;;;;;;;;;;;;;29.53;28.70;95335.44;10440400;28;2276;-84
2023/06/29 14:35:58;;;;;;;;;;;;;;;29.90;28.19;95331.16;10467583;28;1970;-83
2023/06/29 14:41:07;;;;;;;;;;;;;;;30.29;26.44;95318.97;10445857;28;4571;-82
2023/06/29 14:51:39;;;;;;;;;;;;;;;29.06;29.06;95307.22;10452645;28;2109;-83
2023/06/29 14:56:43;;;;;;;;;;;;;;;28.72;29.00;95308.97;10428842;28;2007;-82
2023/06/29 15:02:10;;;;;;;;;;;;;;;29.19;27.75;95304.78;10447308;28;1891;-82
2023/06/29 15:07:21;;;;;;;;;;;;;;;29.23;27.23;95302.00;10433195;28;2007;-81
2023/06/29 15:12:55;;;;;;;;;;;;;;;28.68;27.84;95297.13;10451786;28;2067;-82
2023/06/29 15:18:01;;;;;;;;;;;;;;;29.10;26.88;95295.38;10451254;28;1959;-82
2023/06/29 15:23:06;;;;;;;;;;;;;;;29.11;26.98;95291.41;10433249;28;2020;-82
2023/06/29 15:28:37;;;;;;;;;;;;;;;29.18;26.81;95285.81;10427615;28;2018;-83
2023/06/29 15:33:46;;;;;;;;;;;;;;;29.21;27.66;95279.50;10448263;28;2058;-84
2023/06/29 15:39:02;;;;;;;;;;;;;;;29.32;27.57;95269.09;10439719;28;2140;-82
2023/06/29 15:44:10;;;;;;;;;;;;;;;29.80;27.74;95284.97;10445945;28;4648;-84
2023/06/29 15:49:22;;;;;;;;;;;;;;;29.14;27.59;95273.97;10451306;28;2023;-83
2023/06/29 15:54:27;;;;;;;;;;;;;;;29.20;27.27;95277.88;10460122;28;2220;-82
2023/06/29 15:59:42;;;;;;;;;;;;;;;28.79;27.20;95271.00;10447271;28;1962;-84
2023/06/29 16:05:03;;;;;;;;;;;;;;;28.99;27.49;95265.78;10445511;28;2325;-82
2023/06/29 16:10:14;;;;;;;;;;;;;;;28.27;28.62;95257.00;10431757;28;2069;-83
2023/06/29 16:20:39;;;;;;;;;;;;;;;27.27;30.28;95256.31;10423427;28;1983;-84
2023/06/29 16:25:42;;;;;;;;;;;;;;;27.04;30.75;95248.41;10448804;28;1962;-80
2023/06/29 16:30:48;;;;;;;;;;;;;;;27.15;31.07;95254.75;10441008;28;2012;-82
2023/06/29 16:35:55;;;;;;;;;;;;;;;26.67;31.88;95254.25;10456962;28;2291;-82
2023/06/29 16:41:07;;;;;;;;;;;;;;;26.51;33.20;95251.81;10439959;28;1966;-77
2023/06/29 16:46:14;;;;;;;;;;;;;;;26.78;31.96;95246.78;10457196;28;2228;-85
2023/06/29 16:51:23;;;;;;;;;;;;;;;26.95;32.52;95251.53;10474459;28;1985;-89
2023/06/29 16:56:35;;;;;;;;;;;;;;;26.71;31.86;95246.75;10436916;28;1877;-90
2023/06/29 17:07:03;;;;;;;;;;;;;;;26.99;32.25;95250.78;10449347;28;1904;-87
2023/06/29 17:12:14;;;;;;;;;;;;;;;26.55;32.56;95249.88;10450551;28;1979;-83
2023/06/29 17:17:20;;;;;;;;;;;;;;;26.45;33.14;95244.31;10457458;28;1905;-89
2023/06/29 17:22:38;;;;;;;;;;;;;;;26.39;33.22;95252.13;10452792;28;1901;-86
2023/06/29 17:27:55;;;;;;;;;;;;;;;26.19;34.60;95248.13;10450501;28;2017;-85
2023/06/29 17:33:06;;;;;;;;;;;;;;;26.08;34.31;95250.81;10437307;28;1993;-86
2023/06/29 17:38:26;;;;;;;;;;;;;;;25.92;34.44;95242.09;10454550;28;1968;-86
2023/06/29 17:43:34;;;;;;;;;;;;;;;25.94;35.12;95237.78;10466947;28;1914;-87
2023/06/29 17:48:51;;;;;;;;;;;;;;;26.03;34.67;95240.19;10474105;28;1904;-84
2023/06/29 17:53:56;;;;;;;;;;;;;;;25.78;35.56;95246.34;10461438;28;1925;-87
2023/06/29 17:59:02;;;;;;;;;;;;;;;25.71;35.77;95235.28;10467321;28;2374;-86
2023/06/29 18:09:24;;;;;;;;;;;;;;;25.41;36.58;95237.41;10475176;28;1910;-71
2023/06/29 18:14:31;;;;;;;;;;;;;;;25.34;37.17;95240.91;10433981;28;1946;-71
2023/06/29 18:19:36;;;;;;;;;;;;;;;25.14;36.50;95240.34;10443086;28;2323;-71
2023/06/29 18:24:42;;;;;;;;;;;;;;;24.99;36.18;95241.34;10446807;28;1961;-72
2023/06/29 18:29:49;;;;;;;;;;;;;;;24.82;36.79;95239.25;10427756;28;2223;-71
2023/06/29 18:34:56;;;;;;;;;;;;;;;24.65;37.52;95251.63;10425380;28;1936;-69
2023/06/29 18:40:00;;;;;;;;;;;;;;;24.47;38.09;95251.44;10447392;28;1886;-70
2023/06/29 18:45:09;;;;;;;;;;;;;;;24.25;39.20;95256.66;10446584;28;1890;-70
2023/06/29 18:50:13;;;;;;;;;;;;;;;24.00;40.71;95250.06;10424999;28;1976;-70
2023/06/29 18:55:18;;;;;;;;;;;;;;;23.88;41.34;95250.28;10439791;28;2314;-69
2023/06/29 19:00:25;;;;;;;;;;;;;;;23.71;42.58;95254.34;10437662;28;1900;-70
2023/06/29 19:05:33;;;;;;;;;;;;;;;23.64;42.62;95266.00;10424967;28;1928;-70
2023/06/29 19:10:39;;;;;;;;;;;;;;;23.55;43.56;95262.72;10421912;28;2022;-69
2023/06/29 19:15:43;;;;;;;;;;;;;;;23.55;44.36;95261.94;10440828;28;1881;-71
2023/06/29 19:20:48;;;;;;;;;;;;;;;23.49;44.57;95258.72;10442476;28;1844;-71
2023/06/29 19:25:54;;;;;;;;;;;;;;;23.51;44.29;95261.88;10443935;28;1802;-72
2023/06/29 19:30:59;;;;;;;;;;;;;;;23.43;45.18;95271.16;10447604;28;1977;-73
2023/06/29 19:36:10;;;;;;;;;;;;;;;23.31;46.17;95274.09;10444094;28;2010;-70
2023/06/29 19:41:28;;;;;;;;;;;;;;;23.16;47.49;95289.53;10440036;28;4534;-69
2023/06/29 19:46:34;;;;;;;;;;;;;;;23.08;49.63;95293.28;10442548;28;1933;-73
2023/06/29 19:51:39;;;;;;;;;;;;;;;22.89;51.70;95296.88;10441937;28;2450;-72
2023/06/29 19:56:54;;;;;;;;;;;;;;;22.75;50.96;95297.38;10444155;28;1864;-72
2023/06/29 20:02:05;;;;;;;;;;;;;;;22.73;53.45;95307.13;10438002;28;1885;-71
2023/06/29 20:07:13;;;;;;;;;;;;;;;22.48;53.76;95309.38;10433154;28;2000;-71
2023/06/29 20:12:19;;;;;;;;;;;;;;;22.29;55.12;95304.69;10451067;28;2042;-71
2023/06/29 20:17:22;;;;;;;;;;;;;;;22.13;57.52;95308.25;10445594;28;1913;-72
2023/06/29 20:22:29;;;;;;;;;;;;;;;21.99;58.64;95307.13;10448448;28;1857;-72
2023/06/29 20:27:35;;;;;;;;;;;;;;;21.82;60.16;95314.59;10449783;28;1835;-71
2023/06/29 20:32:40;;;;;;;;;;;;;;;21.89;60.08;95313.97;10446673;28;1991;-73
2023/06/29 20:37:47;;;;;;;;;;;;;;;21.94;60.11;95319.16;10417312;28;1899;-73
2023/06/29 20:42:51;;;;;;;;;;;;;;;22.00;60.70;95319.66;10415901;28;4605;-69
2023/06/29 20:47:59;;;;;;;;;;;;;;;22.10;61.63;95317.19;10444683;28;2222;-70
2023/06/29 20:53:07;;;;;;;;;;;;;;;22.21;61.29;95322.13;10428950;28;2041;-69
2023/06/29 20:58:10;;;;;;;;;;;;;;;22.23;61.33;95330.75;10447084;28;1955;-70
2023/06/29 21:03:28;;;;;;;;;;;;;;;22.18;62.12;95317.34;10429357;28;1952;-70
2023/06/29 21:08:32;;;;;;;;;;;;;;;22.24;62.05;95322.19;10445889;28;1996;-69
2023/06/29 21:13:35;;;;;;;;;;;;;;;22.04;65.90;95310.38;10440652;28;2128;-69
2023/06/29 21:18:41;;;;;;;;;;;;;;;21.86;68.19;95318.19;10447497;28;2001;-69
2023/06/29 21:23:45;;;;;;;;;;;;;;;21.74;72.59;95317.53;10436242;28;1879;-68
2023/06/29 21:28:49;;;;;;;;;;;;;;;21.68;73.09;95311.53;10449444;28;1864;-68
2023/06/29 21:33:54;;;;;;;;;;;;;;;21.53;74.06;95310.41;10445198;28;1910;-69
2023/06/29 21:38:58;;;;;;;;;;;;;;;21.48;76.08;95307.94;10434350;28;2159;-70
2023/06/29 21:44:09;;;;;;;;;;;;;;;21.42;80.48;95314.03;10427319;28;4616;-70
2023/06/29 21:49:15;;;;;;;;;;;;;;;21.42;79.66;95314.03;10427461;28;2223;-70
2023/06/29 21:54:25;;;;;;;;;;;;;;;21.43;81.42;95310.94;10448554;28;1898;-71
2023/06/29 21:59:33;;;;;;;;;;;;;;;21.47;87.66;95314.56;10445966;28;2051;-70
2023/06/29 22:04:36;;;;;;;;;;;;;;;21.49;86.91;95311.47;10432234;28;1915;-70
2023/06/29 22:09:40;;;;;;;;;;;;;;;21.58;84.21;95315.63;10450582;28;1958;-70
2023/06/29 22:14:47;;;;;;;;;;;;;;;21.58;83.24;95320.28;10433560;28;1939;-69
2023/06/29 22:19:53;;;;;;;;;;;;;;;21.61;82.83;95314.09;10447921;28;1852;-70
2023/06/29 22:24:57;;;;;;;;;;;;;;;21.48;84.55;95318.88;10446516;28;2031;-68
2023/06/29 22:30:01;;;;;;;;;;;;;;;21.43;85.53;95313.66;10449966;28;2061;-70
2023/06/29 22:35:04;;;;;;;;;;;;;;;21.40;86.81;95317.13;10428401;28;1998;-69
2023/06/29 22:40:09;;;;;;;;;;;;;;;21.45;88.24;95324.28;10452064;28;2310;-69
2023/06/29 22:45:12;;;;;;;;;;;;;;;21.49;88.77;95320.47;10446069;28;4533;-70
2023/06/29 22:50:16;;;;;;;;;;;;;;;21.48;89.94;95329.81;10427495;28;1993;-69
2023/06/29 22:55:19;;;;;;;;;;;;;;;21.54;91.08;95328.41;10452650;28;2016;-70
2023/06/29 23:00:24;;;;;;;;;;;;;;;21.46;91.15;95320.38;10431775;28;1871;-70
2023/06/29 23:05:41;;;;;;;;;;;;;;;21.31;93.39;95320.06;10430385;28;1967;-70
2023/06/29 23:10:48;;;;;;;;;;;;;;;21.42;94.38;95342.16;10441912;28;1989;-70
2023/06/29 23:15:53;;;;;;;;;;;;;;;21.50;94.83;95349.41;10446018;28;1908;-69
2023/06/29 23:21:02;;;;;;;;;;;;;;;21.44;95.04;95353.56;10427089;28;1943;-70
2023/06/29 23:26:07;;;;;;;;;;;;;;;21.34;95.66;95348.63;10444101;28;1946;-71
2023/06/29 23:31:10;;;;;;;;;;;;;;;21.19;97.23;95343.91;10438754;28;1983;-69
2023/06/29 23:36:21;;;;;;;;;;;;;;;21.02;98.38;95329.44;10427833;28;1892;-69
2023/06/29 23:41:27;;;;;;;;;;;;;;;20.97;99.54;95321.47;10446197;28;4561;-70
2023/06/29 23:46:39;;;;;;;;;;;;;;;20.84;100.00;95316.44;10423960;28;1559;-73
2023/06/29 23:51:44;;;;;;;;;;;;;;;20.84;100.00;95311.78;10427604;28;1985;-70
2023/06/29 23:56:51;;;;;;;;;;;;;;;20.87;100.00;95305.63;10443072;28;1926;-72
